Dougherty, Iowa
Current Conditions -  °F | °C
As of 9:53 AM on Thursday 30 Oct 2014 (Local Time) from KMCW Reporting Station
Overcast Overcast  
Wind Chill: 38°   Ceiling: 7500
Heat Index: 42°   Visibility: 10mi
Dew Point: 38°   Wind: 7mph
Humidity: 85%   Direction: 150°SSE
Pressure: 30.06"   Gusts: NA
Location:  42.92°N, 93.04°W
Report Text: KMCW 301453Z AUTO 15006KT 10SM FEW060 BKN075 OVC100 06/03 A3006 RMK AO2 SLP184 T00560033 52007
Loading
Personal Weather Stations






























Interactive Weather Map
Tropical Storm Tracking
New forecast layout! Learn more

10-Day Weather Forecast

Advertisements
Track Severe Weather on mobile